createdAt,value
2019-04-05T00:01:16.986Z,3.70
2019-04-05T00:03:45.391Z,3.70
2019-04-05T00:06:13.814Z,3.70
2019-04-05T00:08:42.211Z,3.70
2019-04-05T00:11:10.638Z,3.70
2019-04-05T00:13:39.134Z,3.80
2019-04-05T00:16:07.627Z,3.80
2019-04-05T00:18:36.079Z,3.80
2019-04-05T00:21:04.586Z,3.80
2019-04-05T00:23:32.989Z,3.90
2019-04-05T00:26:01.413Z,3.80
2019-04-05T00:28:29.958Z,3.80
2019-04-05T00:30:58.362Z,3.80
2019-04-05T00:33:26.746Z,3.80
2019-04-05T00:35:55.150Z,3.80
2019-04-05T00:38:23.806Z,3.70
2019-04-05T00:40:52.210Z,3.60
2019-04-05T00:43:20.690Z,3.60
2019-04-05T00:45:49.186Z,3.60
2019-04-05T00:48:17.802Z,3.60
2019-04-05T00:50:46.210Z,3.60
2019-04-05T00:53:14.682Z,3.70
2019-04-05T00:55:43.122Z,3.70
2019-04-05T00:58:11.585Z,3.70
2019-04-05T01:00:40.097Z,3.80
2019-04-05T01:03:08.490Z,3.80
2019-04-05T01:05:36.889Z,3.70
2019-04-05T01:08:05.552Z,3.70
2019-04-05T01:10:34.026Z,3.80
2019-04-05T01:13:03.011Z,3.80
2019-04-05T01:15:40.761Z,3.80
2019-04-05T01:18:01.698Z,3.70
2019-04-05T01:20:33.181Z,3.70
2019-04-05T01:23:04.333Z,3.80
2019-04-05T01:25:35.379Z,3.70
2019-04-05T01:28:04.026Z,3.80
2019-04-05T01:30:32.566Z,3.80
2019-04-05T01:33:01.030Z,3.70
2019-04-05T01:35:29.435Z,3.70
2019-04-05T01:37:58.476Z,3.70
2019-04-05T01:40:29.710Z,3.70
2019-04-05T01:42:58.296Z,3.80
2019-04-05T01:45:27.086Z,3.80
2019-04-05T01:47:55.718Z,3.60
2019-04-05T01:50:24.122Z,3.80
2019-04-05T01:52:53.188Z,3.70
2019-04-05T01:55:21.593Z,3.70
2019-04-05T01:57:49.990Z,3.70
2019-04-05T02:00:18.546Z,3.70
2019-04-05T02:02:47.129Z,3.60
2019-04-05T02:05:15.771Z,3.70
2019-04-05T02:07:44.502Z,3.70
2019-04-05T02:10:13.339Z,3.60
2019-04-05T02:12:41.743Z,3.60
2019-04-05T02:15:11.860Z,3.70
2019-04-05T02:17:40.258Z,3.70
2019-04-05T02:20:09.314Z,3.70
2019-04-05T02:22:37.849Z,3.70
2019-04-05T02:25:07.191Z,3.80
2019-04-05T02:27:35.595Z,3.80
2019-04-05T02:30:06.260Z,3.80
2019-04-05T02:32:34.732Z,3.70
2019-04-05T02:35:04.159Z,3.80
2019-04-05T02:37:32.607Z,3.70
2019-04-05T02:40:01.113Z,3.60
2019-04-05T02:42:30.419Z,3.60
2019-04-05T02:44:59.481Z,3.60
2019-04-05T02:47:28.662Z,3.70
2019-04-05T02:49:58.410Z,3.70
2019-04-05T02:52:28.054Z,3.60
2019-04-05T02:54:57.363Z,3.70
2019-04-05T02:57:27.283Z,3.70
2019-04-05T02:59:56.097Z,3.60
2019-04-05T03:02:25.167Z,3.70
2019-04-05T03:04:53.566Z,3.60
2019-04-05T03:07:22.420Z,3.60
2019-04-05T03:09:51.374Z,3.60
2019-04-05T03:12:20.036Z,3.70
2019-04-05T03:14:48.997Z,3.70
2019-04-05T03:17:17.744Z,3.60
2019-04-05T03:19:47.176Z,3.70
2019-04-05T03:25:05.844Z,3.60
2019-04-05T03:27:37.269Z,3.60
2019-04-05T03:30:07.703Z,3.70
2019-04-05T03:32:36.243Z,3.70
2019-04-05T03:35:05.983Z,3.80
2019-04-05T03:37:34.693Z,3.70
2019-04-05T03:40:04.480Z,3.70
2019-04-05T03:42:32.987Z,3.70
2019-04-05T03:45:01.630Z,3.70
2019-04-05T03:47:30.332Z,3.70
2019-04-05T03:49:59.216Z,3.70
2019-04-05T03:52:27.687Z,3.70
2019-04-05T03:54:56.081Z,3.70
2019-04-05T03:57:24.501Z,3.70
2019-04-05T03:59:53.276Z,3.70
2019-04-05T04:02:23.493Z,3.70
2019-04-05T04:04:51.967Z,3.70
2019-04-05T04:07:22.102Z,3.70
2019-04-05T04:09:50.886Z,3.70
2019-04-05T04:12:19.335Z,3.70
2019-04-05T04:14:47.887Z,3.70
2019-04-05T04:17:16.348Z,3.70
2019-04-05T04:19:44.996Z,3.70
2019-04-05T04:22:16.471Z,3.70
2019-04-05T04:24:44.879Z,3.80
2019-04-05T04:27:13.534Z,3.80
2019-04-05T04:29:42.163Z,3.70
2019-04-05T04:32:10.727Z,3.70
2019-04-05T04:34:39.379Z,3.60
2019-04-05T04:37:08.047Z,3.70
2019-04-05T04:39:37.325Z,3.70
2019-04-05T04:42:06.944Z,3.70
2019-04-05T04:44:35.347Z,3.60
2019-04-05T04:47:04.143Z,3.70
2019-04-05T04:49:33.209Z,3.70
2019-04-05T04:52:01.895Z,3.70
2019-04-05T04:54:30.425Z,3.70
2019-04-05T04:56:59.101Z,3.70
2019-04-05T04:59:27.561Z,3.70
2019-04-05T05:01:56.209Z,3.70
2019-04-05T05:04:24.918Z,3.70
2019-04-05T05:06:53.486Z,3.80
2019-04-05T05:09:21.969Z,3.70
2019-04-05T05:11:50.621Z,3.70
2019-04-05T05:14:19.613Z,3.60
2019-04-05T05:16:48.122Z,3.60
2019-04-05T05:19:16.786Z,3.60
2019-04-05T05:21:45.250Z,3.70
2019-04-05T05:24:13.888Z,3.70
2019-04-05T05:26:42.353Z,3.70
2019-04-05T05:29:10.843Z,3.70
2019-04-05T05:31:39.471Z,3.70
2019-04-05T05:34:08.177Z,3.70
2019-04-05T05:36:36.664Z,3.80
2019-04-05T05:39:07.608Z,3.80
2019-04-05T05:41:36.267Z,3.70
2019-04-05T05:44:05.092Z,3.80
2019-04-05T05:46:33.803Z,3.80
2019-04-05T05:49:02.238Z,3.70
2019-04-05T05:51:30.933Z,3.80
2019-04-05T05:53:59.367Z,3.80
2019-04-05T05:56:27.816Z,3.80
2019-04-05T05:58:59.425Z,3.80
2019-04-05T06:01:27.107Z,3.70
2019-04-05T06:03:55.781Z,3.70
2019-04-05T06:06:24.425Z,3.70
2019-04-05T06:08:52.865Z,3.80
2019-04-05T06:11:21.274Z,3.80
2019-04-05T06:13:49.751Z,3.90
2019-04-05T06:16:18.248Z,3.90
2019-04-05T06:18:48.566Z,3.90
2019-04-05T06:21:17.056Z,4.00
2019-04-05T06:23:45.702Z,4.00
2019-04-05T06:26:14.116Z,4.10
2019-04-05T06:28:42.886Z,4.20
2019-04-05T06:31:11.678Z,4.30
2019-04-05T06:33:40.306Z,4.30
2019-04-05T06:36:08.730Z,4.40
2019-04-05T06:38:37.134Z,4.40
2019-04-05T06:41:05.611Z,4.40
2019-04-05T06:43:34.013Z,4.40
2019-04-05T06:46:02.518Z,4.30
2019-04-05T06:48:31.272Z,4.40
2019-04-05T06:51:01.262Z,4.50
2019-04-05T06:53:29.653Z,4.50
2019-04-05T06:55:59.763Z,4.60
2019-04-05T06:58:29.667Z,4.60
2019-04-05T07:00:58.079Z,4.70
2019-04-05T07:03:26.465Z,4.70
2019-04-05T07:05:57.923Z,4.80
2019-04-05T07:08:26.379Z,4.80
2019-04-05T07:10:55.023Z,5.00
2019-04-05T07:13:23.421Z,5.00
2019-04-05T07:15:51.817Z,5.00
2019-04-05T07:18:32.651Z,5.20
2019-04-05T07:20:50.612Z,5.30
2019-04-05T07:23:19.015Z,5.30
2019-04-05T07:25:47.417Z,5.50
2019-04-05T07:28:15.839Z,5.70
2019-04-05T07:30:44.511Z,5.70
2019-04-05T07:33:12.983Z,5.70
2019-04-05T07:35:41.414Z,5.80
2019-04-05T07:38:24.818Z,5.90
2019-04-05T07:40:53.531Z,5.90
2019-04-05T07:43:22.163Z,5.80
2019-04-05T07:45:50.810Z,5.70
2019-04-05T07:48:19.462Z,5.80
2019-04-05T07:50:47.868Z,5.90
2019-04-05T07:53:16.509Z,6.00
2019-04-05T07:55:44.987Z,6.20
2019-04-05T07:58:13.398Z,6.10
2019-04-05T08:00:50.367Z,6.30
2019-04-05T08:03:19.998Z,6.20
2019-04-05T08:05:49.036Z,6.20
2019-04-05T08:08:23.455Z,6.20
2019-04-05T08:10:52.035Z,6.20
2019-04-05T08:13:21.973Z,6.10
2019-04-05T08:15:51.064Z,6.20
2019-04-05T08:18:19.483Z,6.20
2019-04-05T08:20:47.869Z,6.20
2019-04-05T08:23:16.288Z,6.20
2019-04-05T08:25:44.685Z,6.20
2019-04-05T08:28:13.093Z,6.10
2019-04-05T08:30:41.724Z,6.10
2019-04-05T08:33:10.127Z,6.20
2019-04-05T08:35:41.661Z,6.30
2019-04-05T08:38:10.305Z,6.30
2019-04-05T08:40:38.710Z,6.30
2019-04-05T08:43:13.079Z,6.30
2019-04-05T08:45:41.591Z,6.50
2019-04-05T08:48:10.242Z,6.70
2019-04-05T08:50:38.879Z,6.90
2019-04-05T08:53:07.287Z,7.10
2019-04-05T08:55:35.717Z,7.00
2019-04-05T08:58:04.281Z,7.10
2019-04-05T09:00:32.689Z,7.00
2019-04-05T09:03:01.102Z,7.00
2019-04-05T09:05:29.502Z,7.10
2019-04-05T09:07:58.000Z,7.00
2019-04-05T09:10:26.400Z,7.10
2019-04-05T09:12:54.842Z,7.10
2019-04-05T09:15:23.239Z,7.10
2019-04-05T09:17:51.638Z,7.20
2019-04-05T09:20:20.046Z,7.50
2019-04-05T09:22:48.445Z,7.70
2019-04-05T09:25:19.671Z,8.00
2019-04-05T09:27:47.642Z,8.30
2019-04-05T09:30:17.968Z,8.60
2019-04-05T09:32:46.375Z,8.80
2019-04-05T09:35:14.902Z,8.90
2019-04-05T09:37:43.323Z,8.70
2019-04-05T09:40:12.174Z,8.60
2019-04-05T09:42:40.641Z,8.50
2019-04-05T09:45:09.176Z,8.60
2019-04-05T09:47:37.892Z,8.60
2019-04-05T09:50:06.686Z,8.60
2019-04-05T09:52:35.139Z,8.40
2019-04-05T09:55:04.202Z,8.40
2019-04-05T09:57:32.863Z,8.60
2019-04-05T10:00:01.507Z,8.50
2019-04-05T10:02:31.847Z,8.70
2019-04-05T10:05:00.038Z,9.00
2019-04-05T10:07:28.693Z,9.00
2019-04-05T10:09:57.081Z,9.00
2019-04-05T10:12:25.523Z,9.20
2019-04-05T10:14:54.240Z,9.00
2019-04-05T10:17:22.709Z,9.20
2019-04-05T10:19:51.146Z,9.40
2019-04-05T10:22:19.575Z,9.60
2019-04-05T10:24:48.311Z,10.00
2019-04-05T10:27:16.725Z,10.20
2019-04-05T10:29:45.125Z,10.40
2019-04-05T10:32:13.865Z,10.70
2019-04-05T10:34:42.303Z,10.30
2019-04-05T10:37:10.998Z,10.40
2019-04-05T10:39:39.622Z,10.20
2019-04-05T10:42:13.920Z,9.90
2019-04-05T10:44:42.807Z,9.60
2019-04-05T10:47:11.454Z,9.40
2019-04-05T10:49:39.862Z,9.20
2019-04-05T10:52:08.293Z,8.90
2019-04-05T10:54:36.752Z,9.00
2019-04-05T10:57:05.407Z,8.90
2019-04-05T10:59:33.799Z,8.70
2019-04-05T11:02:02.222Z,8.80
2019-04-05T11:04:30.609Z,8.80
2019-04-05T11:06:59.006Z,8.70
2019-04-05T11:09:27.420Z,8.70
2019-04-05T11:11:55.820Z,8.60
2019-04-05T11:14:24.225Z,8.40
2019-04-05T11:16:58.311Z,8.30
2019-04-05T11:19:22.749Z,8.40
2019-04-05T11:21:52.408Z,8.30
2019-04-05T11:24:21.283Z,8.00
2019-04-05T11:26:49.944Z,8.00
2019-04-05T11:29:18.646Z,8.10
2019-04-05T11:31:57.057Z,8.20
2019-04-05T11:34:17.611Z,8.20
2019-04-05T11:36:46.813Z,8.10
2019-04-05T11:39:15.358Z,8.20
2019-04-05T11:41:44.315Z,8.00
2019-04-05T11:44:13.206Z,8.00
2019-04-05T11:46:42.656Z,8.00
2019-04-05T11:49:12.000Z,8.00
2019-04-05T11:51:43.026Z,8.00
2019-04-05T11:54:11.749Z,8.10
2019-04-05T11:56:40.773Z,8.10
2019-04-05T11:59:11.060Z,8.00
2019-04-05T12:01:43.518Z,8.10
2019-04-05T12:04:12.235Z,8.20
2019-04-05T12:06:40.875Z,8.20
2019-04-05T12:09:09.442Z,8.20
2019-04-05T12:11:37.890Z,8.00
2019-04-05T12:14:06.663Z,8.00
2019-04-05T12:16:36.233Z,8.10
2019-04-05T12:19:05.554Z,8.10
2019-04-05T12:21:34.772Z,8.20
2019-04-05T12:24:03.803Z,8.30
2019-04-05T12:26:32.472Z,8.10
2019-04-05T12:29:02.574Z,8.10
2019-04-05T12:31:30.975Z,8.10
2019-04-05T12:34:02.140Z,8.10
2019-04-05T12:36:30.602Z,8.10
2019-04-05T12:38:59.243Z,8.20
2019-04-05T12:41:27.642Z,8.20
2019-04-05T12:43:56.298Z,8.30
2019-04-05T12:46:25.004Z,8.40
2019-04-05T12:48:53.434Z,8.40
2019-04-05T12:51:22.005Z,8.60
2019-04-05T12:53:50.442Z,8.70
2019-04-05T12:56:19.364Z,8.50
2019-04-05T12:58:47.933Z,8.40
2019-04-05T13:01:18.104Z,8.50
2019-04-05T13:03:46.568Z,8.50
2019-04-05T13:06:15.001Z,8.50
2019-04-05T13:08:43.566Z,8.40
2019-04-05T13:11:12.416Z,8.20
2019-04-05T13:13:40.891Z,8.00
2019-04-05T13:16:12.239Z,8.00
2019-04-05T13:18:40.684Z,7.80
2019-04-05T13:21:15.311Z,7.80
2019-04-05T13:23:41.152Z,7.80
2019-04-05T13:26:12.342Z,7.80
2019-04-05T13:28:40.306Z,7.90
2019-04-05T13:31:08.818Z,8.00
2019-04-05T13:33:37.472Z,8.10
2019-04-05T13:36:08.282Z,8.10
2019-04-05T13:38:36.122Z,8.10
2019-04-05T13:41:06.304Z,8.10
2019-04-05T13:43:34.901Z,8.10
2019-04-05T13:46:03.598Z,8.10
2019-04-05T13:48:32.084Z,8.00
2019-04-05T13:51:00.477Z,8.00
2019-04-05T13:53:28.944Z,8.10
2019-04-05T13:55:57.498Z,8.10
2019-04-05T13:58:25.985Z,8.20
2019-04-05T14:00:54.923Z,8.20
2019-04-05T14:03:23.658Z,8.20
2019-04-05T14:05:54.029Z,8.30
2019-04-05T14:08:22.373Z,8.30
2019-04-05T14:10:50.842Z,8.40
2019-04-05T14:13:19.500Z,8.40
2019-04-05T14:15:48.170Z,8.50
2019-04-05T14:18:16.794Z,8.40
2019-04-05T14:20:45.422Z,8.40
2019-04-05T14:23:13.862Z,8.40
2019-04-05T14:25:42.718Z,8.30
2019-04-05T14:28:11.506Z,8.30
2019-04-05T14:30:40.034Z,8.20
2019-04-05T14:33:08.498Z,8.30
2019-04-05T14:35:37.210Z,8.40
2019-04-05T14:38:05.614Z,8.30
2019-04-05T14:40:34.091Z,8.30
2019-04-05T14:43:02.703Z,8.20
2019-04-05T14:45:31.089Z,8.20
2019-04-05T14:47:59.552Z,8.30
2019-04-05T14:50:28.773Z,8.30
2019-04-05T14:53:01.735Z,8.40
2019-04-05T14:55:29.932Z,8.30
2019-04-05T14:57:59.038Z,8.40
2019-04-05T15:00:30.514Z,8.30
2019-04-05T15:02:59.082Z,8.20
2019-04-05T15:05:27.729Z,8.10
2019-04-05T15:07:56.244Z,8.10
2019-04-05T15:10:25.375Z,8.20
2019-04-05T15:12:54.785Z,8.10
2019-04-05T15:15:23.246Z,8.20
2019-04-05T15:17:51.859Z,8.20
2019-04-05T15:20:20.442Z,8.20
2019-04-05T15:22:49.010Z,8.20
2019-04-05T15:25:21.589Z,8.30
2019-04-05T15:27:52.387Z,8.20
2019-04-05T15:30:19.700Z,8.20
2019-04-05T15:32:51.167Z,8.20
2019-04-05T15:35:20.094Z,8.30
2019-04-05T15:37:48.653Z,8.20
2019-04-05T15:40:17.254Z,8.20
2019-04-05T15:42:45.749Z,8.10
2019-04-05T15:45:16.187Z,8.10
2019-04-05T15:47:45.197Z,8.00
2019-04-05T15:50:13.842Z,8.00
2019-04-05T15:52:42.419Z,8.10
2019-04-05T15:55:11.024Z,8.10
2019-04-05T15:57:39.646Z,8.00
2019-04-05T16:00:10.909Z,8.00
2019-04-05T16:02:42.997Z,8.00
2019-04-05T16:05:12.075Z,8.00
2019-04-05T16:07:40.611Z,7.90
2019-04-05T16:10:12.490Z,7.90
2019-04-05T16:12:40.924Z,7.90
2019-04-05T16:15:18.480Z,7.90
2019-04-05T16:17:47.165Z,7.90
2019-04-05T16:20:16.088Z,7.90
2019-04-05T16:22:44.506Z,7.90
2019-04-05T16:25:13.537Z,7.90
2019-04-05T16:27:44.323Z,7.80
2019-04-05T16:30:13.486Z,7.90
2019-04-05T16:32:41.991Z,7.90
2019-04-05T16:35:14.735Z,7.90
2019-04-05T16:37:43.401Z,7.80
2019-04-05T16:40:12.542Z,7.80
2019-04-05T16:42:41.344Z,7.70
2019-04-05T16:45:14.261Z,7.80
2019-04-05T16:47:44.099Z,7.70
2019-04-05T16:50:14.425Z,7.70
2019-04-05T16:52:45.252Z,7.70
2019-04-05T16:55:13.375Z,7.70
2019-04-05T16:57:42.331Z,7.70
2019-04-05T17:00:13.062Z,7.70
2019-04-05T17:02:41.938Z,7.70
2019-04-05T17:05:11.527Z,7.70
2019-04-05T17:07:40.699Z,7.70
2019-04-05T17:10:09.683Z,7.70
2019-04-05T17:12:38.389Z,7.70
2019-04-05T17:15:08.786Z,7.60
2019-04-05T17:17:37.339Z,7.60
2019-04-05T17:20:06.995Z,7.60
2019-04-05T17:22:35.690Z,7.60
2019-04-05T17:25:07.171Z,7.50
2019-04-05T17:27:35.900Z,7.60
2019-04-05T17:30:05.929Z,7.50
2019-04-05T17:32:34.447Z,7.50
2019-04-05T17:35:03.074Z,7.50
2019-04-05T17:37:32.004Z,7.50
2019-04-05T17:40:00.495Z,7.40
2019-04-05T17:42:29.185Z,7.40
2019-04-05T17:44:57.968Z,7.40
2019-04-05T17:47:26.419Z,7.40
2019-04-05T17:49:55.291Z,7.40
2019-04-05T17:52:23.978Z,7.30
2019-04-05T17:54:52.524Z,7.20
2019-04-05T17:57:21.343Z,7.20
2019-04-05T17:59:56.114Z,7.20
2019-04-05T18:02:20.232Z,7.20
2019-04-05T18:04:48.734Z,7.20
2019-04-05T18:07:17.495Z,7.20
2019-04-05T18:09:46.064Z,7.10
2019-04-05T18:12:15.091Z,7.10
2019-04-05T18:14:43.547Z,7.00
2019-04-05T18:17:12.144Z,7.10
2019-04-05T18:19:40.707Z,7.00
2019-04-05T18:22:09.239Z,7.00
2019-04-05T18:24:37.785Z,7.00
2019-04-05T18:27:06.575Z,7.00
2019-04-05T18:29:35.523Z,7.00
2019-04-05T18:32:04.125Z,7.10
2019-04-05T18:34:32.927Z,7.00
2019-04-05T18:37:01.513Z,7.00
2019-04-05T18:39:30.055Z,7.00
2019-04-05T18:41:58.623Z,7.00
2019-04-05T18:44:27.037Z,7.00
2019-04-05T18:46:55.798Z,7.00
2019-04-05T18:49:24.504Z,7.00
2019-04-05T18:51:53.275Z,6.90
2019-04-05T18:54:21.752Z,6.90
2019-04-05T18:56:50.286Z,7.00
2019-04-05T18:59:18.802Z,7.00
2019-04-05T19:01:47.435Z,7.00
2019-04-05T19:04:15.842Z,7.00
2019-04-05T19:06:46.189Z,7.00
2019-04-05T19:09:15.668Z,7.00
2019-04-05T19:11:44.081Z,6.90
2019-04-05T19:14:12.518Z,7.00
2019-04-05T19:16:40.930Z,6.90
2019-04-05T19:19:09.650Z,6.90
2019-04-05T19:21:38.583Z,6.90
2019-04-05T19:24:07.199Z,6.90
2019-04-05T19:26:35.905Z,6.90
2019-04-05T19:29:05.320Z,6.90
2019-04-05T19:49:09.155Z,6.80
2019-04-05T19:51:37.652Z,6.80
2019-04-05T19:54:06.153Z,6.80
2019-04-05T19:56:34.794Z,6.80
2019-04-05T19:59:03.272Z,6.80
2019-04-05T20:01:32.643Z,6.80
2019-04-05T20:04:01.708Z,6.80
2019-04-05T20:06:31.286Z,6.80
2019-04-05T20:08:59.714Z,6.80
2019-04-05T20:11:28.381Z,6.80
2019-04-05T20:13:57.494Z,6.80
2019-04-05T20:16:26.135Z,6.80
2019-04-05T20:18:54.593Z,6.80
2019-04-05T20:21:23.428Z,6.80
2019-04-05T20:23:52.194Z,6.80
2019-04-05T20:26:21.157Z,6.80
2019-04-05T20:28:50.426Z,6.80
2019-04-05T20:31:19.302Z,6.80
2019-04-05T20:33:47.858Z,6.80
2019-04-05T20:36:17.434Z,6.80
2019-04-05T20:38:46.607Z,6.80
2019-04-05T20:41:15.370Z,6.80
2019-04-05T20:43:44.174Z,6.80
2019-04-05T20:46:13.131Z,6.80
2019-04-05T20:48:45.895Z,6.80
2019-04-05T20:51:15.551Z,6.80
2019-04-05T20:53:44.322Z,6.90
2019-04-05T20:56:12.997Z,6.80
2019-04-05T20:58:41.943Z,6.80
2019-04-05T21:01:10.326Z,6.80
2019-04-05T21:03:38.975Z,6.80
2019-04-05T21:06:07.372Z,6.80
2019-04-05T21:08:35.779Z,6.80
2019-04-05T21:11:04.451Z,6.80
2019-04-05T21:13:33.093Z,6.80
2019-04-05T21:16:01.502Z,6.80
2019-04-05T21:18:29.922Z,6.80
2019-04-05T21:20:58.329Z,6.80
2019-04-05T21:23:26.972Z,6.80
2019-04-05T21:25:55.461Z,6.80
2019-04-05T21:28:24.092Z,6.80
2019-04-05T21:30:52.725Z,6.80
2019-04-05T21:33:21.166Z,6.80
2019-04-05T21:35:49.575Z,6.80
2019-04-05T21:38:18.218Z,6.90
2019-04-05T21:40:46.874Z,6.90
2019-04-05T21:43:15.523Z,6.80
2019-04-05T21:45:43.954Z,6.70
2019-04-05T21:48:12.353Z,6.70
2019-04-05T21:50:40.778Z,6.70
2019-04-05T21:53:09.202Z,6.80
2019-04-05T21:55:37.597Z,6.70
2019-04-05T21:58:06.025Z,6.70
2019-04-05T22:00:44.090Z,6.70
2019-04-05T22:03:12.568Z,6.80
2019-04-05T22:05:40.985Z,6.80
2019-04-05T22:08:09.475Z,6.70
2019-04-05T22:10:37.882Z,6.70
2019-04-05T22:13:06.579Z,6.80
2019-04-05T22:15:38.243Z,6.80
2019-04-05T22:18:10.398Z,6.80
2019-04-05T22:20:38.835Z,6.80
2019-04-05T22:23:07.302Z,6.80
2019-04-05T22:25:35.730Z,6.80
2019-04-05T22:28:04.155Z,6.70
2019-04-05T22:30:32.658Z,6.70
2019-04-05T22:33:01.151Z,6.70
2019-04-05T22:35:29.838Z,6.70
2019-04-05T22:37:58.252Z,6.70
2019-04-05T22:40:26.662Z,6.70
2019-04-05T22:42:55.493Z,6.70
2019-04-05T22:45:24.108Z,6.70
2019-04-05T22:47:52.582Z,6.80
2019-04-05T22:50:21.306Z,6.80
2019-04-05T22:52:49.803Z,6.80
2019-04-05T22:55:18.210Z,6.80
2019-04-05T22:57:46.933Z,6.80
2019-04-05T23:00:15.999Z,6.80
2019-04-05T23:02:44.429Z,6.80
2019-04-05T23:05:13.155Z,6.80
2019-04-05T23:07:41.591Z,6.80
2019-04-05T23:10:10.198Z,6.80
2019-04-05T23:12:38.679Z,6.80
2019-04-05T23:15:08.495Z,6.80
2019-04-05T23:17:37.152Z,6.80
2019-04-05T23:20:06.837Z,6.80
2019-04-05T23:22:35.497Z,6.80
2019-04-05T23:25:05.751Z,6.80
2019-04-05T23:27:34.421Z,6.80
2019-04-05T23:30:03.402Z,6.80
2019-04-05T23:32:31.863Z,6.80
2019-04-05T23:35:00.282Z,6.80
2019-04-05T23:37:28.950Z,6.80
2019-04-05T23:39:57.380Z,6.80
2019-04-05T23:42:26.054Z,6.90
2019-04-05T23:44:54.705Z,6.80
2019-04-05T23:47:23.387Z,6.80
2019-04-05T23:49:52.054Z,6.80
2019-04-05T23:52:20.482Z,6.80
2019-04-05T23:54:49.158Z,6.80
2019-04-05T23:57:17.566Z,6.80
2019-04-05T23:59:46.035Z,6.80
